createdAt,value
2019-02-11T00:00:34.927Z,7.32
2019-02-11T00:03:03.371Z,7.28
2019-02-11T00:05:31.813Z,7.23
2019-02-11T00:08:00.291Z,7.21
2019-02-11T00:10:28.741Z,7.19
2019-02-11T00:12:57.175Z,7.17
2019-02-11T00:15:26.713Z,7.16
2019-02-11T00:17:55.166Z,7.14
2019-02-11T00:20:23.613Z,7.11
2019-02-11T00:22:52.090Z,7.10
2019-02-11T00:25:20.548Z,7.09
2019-02-11T00:27:48.972Z,7.07
2019-02-11T00:30:17.465Z,7.04
2019-02-11T00:32:45.947Z,7.02
2019-02-11T00:35:14.438Z,7.00
2019-02-11T00:37:42.925Z,6.96
2019-02-11T00:40:11.384Z,6.95
2019-02-11T00:42:39.832Z,6.91
2019-02-11T00:45:09.081Z,6.89
2019-02-11T00:47:37.540Z,6.88
2019-02-11T00:50:09.131Z,6.87
2019-02-11T00:52:37.632Z,6.85
2019-02-11T00:55:06.345Z,6.83
2019-02-11T00:57:34.792Z,6.81
2019-02-11T01:00:03.286Z,6.78
2019-02-11T01:02:31.743Z,6.75
2019-02-11T01:05:00.201Z,6.71
2019-02-11T01:07:28.697Z,6.69
2019-02-11T01:09:57.142Z,6.65
2019-02-11T01:12:25.600Z,6.61
2019-02-11T01:14:54.082Z,6.57
2019-02-11T01:17:22.769Z,6.53
2019-02-11T01:19:51.228Z,6.50
2019-02-11T01:22:19.736Z,6.46
2019-02-11T01:24:48.180Z,6.42
2019-02-11T01:27:16.635Z,6.40
2019-02-11T01:29:45.119Z,6.37
2019-02-11T01:32:13.565Z,6.34
2019-02-11T01:34:42.011Z,6.29
2019-02-11T01:37:10.503Z,6.23
2019-02-11T01:39:38.949Z,6.14
2019-02-11T01:42:07.418Z,6.01
2019-02-11T01:44:35.907Z,5.80
2019-02-11T01:47:04.360Z,5.56
2019-02-11T01:49:32.802Z,5.38
2019-02-11T01:52:01.273Z,5.17
2019-02-11T01:54:29.726Z,5.01
2019-02-11T01:56:58.178Z,4.85
2019-02-11T01:59:26.661Z,4.56
2019-02-11T02:01:55.106Z,4.56
2019-02-11T02:04:23.552Z,4.32
2019-02-11T02:06:52.035Z,4.32
2019-02-11T02:09:20.507Z,4.18
2019-02-11T02:11:48.960Z,4.07
2019-02-11T02:14:17.443Z,3.88
2019-02-11T02:16:45.902Z,3.88
2019-02-11T02:19:15.878Z,3.78
2019-02-11T02:21:44.347Z,3.73
2019-02-11T02:24:12.798Z,3.65
2019-02-11T02:26:41.272Z,3.57
2019-02-11T02:29:09.786Z,3.46
2019-02-11T02:31:38.245Z,3.40
2019-02-11T02:34:06.702Z,3.32
2019-02-11T02:36:35.199Z,3.22
2019-02-11T02:39:04.774Z,3.15
2019-02-11T02:41:33.223Z,3.10
2019-02-11T02:44:01.700Z,3.07
2019-02-11T02:46:30.146Z,3.05
2019-02-11T02:48:58.609Z,3.04
2019-02-11T02:51:27.109Z,3.04
2019-02-11T02:53:55.551Z,3.07
2019-02-11T02:56:24.003Z,3.11
2019-02-11T02:58:52.489Z,3.14
2019-02-11T03:01:20.938Z,3.19
2019-02-11T03:03:49.391Z,3.23
2019-02-11T03:06:17.873Z,3.25
2019-02-11T03:08:46.328Z,3.29
2019-02-11T03:11:14.780Z,3.32
2019-02-11T03:13:43.281Z,3.34
2019-02-11T03:16:11.690Z,3.37
2019-02-11T03:18:40.135Z,3.40
2019-02-11T03:21:09.643Z,3.44
2019-02-11T03:23:38.112Z,3.49
2019-02-11T03:26:06.563Z,3.54
2019-02-11T03:28:35.056Z,3.62
2019-02-11T03:31:03.522Z,3.70
2019-02-11T03:33:31.981Z,3.77
2019-02-11T03:36:00.483Z,3.82
2019-02-11T03:38:28.944Z,3.89
2019-02-11T03:40:57.385Z,3.94
2019-02-11T03:43:25.895Z,3.96
2019-02-11T03:45:54.349Z,4.01
2019-02-11T03:48:22.823Z,4.01
2019-02-11T03:50:51.312Z,4.01
2019-02-11T03:53:19.768Z,4.07
2019-02-11T03:55:48.301Z,4.09
2019-02-11T03:58:16.819Z,4.09
2019-02-11T04:00:45.267Z,4.10
2019-02-11T04:03:13.727Z,4.15
2019-02-11T04:05:42.250Z,4.17
2019-02-11T04:08:10.667Z,4.23
2019-02-11T04:10:39.120Z,4.23
2019-02-11T04:13:07.610Z,4.26
2019-02-11T04:15:36.160Z,4.37
2019-02-11T04:18:04.623Z,4.38
2019-02-11T04:20:33.104Z,4.41
2019-02-11T04:23:03.461Z,4.41
2019-02-11T04:25:31.913Z,4.50
2019-02-11T04:28:00.399Z,4.55
2019-02-11T04:30:28.848Z,4.55
2019-02-11T04:32:57.305Z,4.55
2019-02-11T04:35:25.791Z,4.61
2019-02-11T04:37:54.249Z,4.63
2019-02-11T04:40:22.786Z,4.67
2019-02-11T04:42:51.279Z,4.67
2019-02-11T04:45:19.723Z,4.73
2019-02-11T04:47:48.178Z,4.75
2019-02-11T04:50:16.665Z,4.75
2019-02-11T04:52:45.115Z,4.81
2019-02-11T04:55:13.649Z,4.85
2019-02-11T04:57:42.137Z,4.87
2019-02-11T05:00:14.636Z,4.90
2019-02-11T05:02:43.087Z,4.90
2019-02-11T05:05:11.772Z,4.95
2019-02-11T05:07:40.237Z,4.93
2019-02-11T05:10:16.104Z,4.97
2019-02-11T05:12:44.600Z,5.00
2019-02-11T05:15:13.046Z,5.01
2019-02-11T05:17:41.493Z,5.01
2019-02-11T05:20:11.980Z,5.00
2019-02-11T05:22:40.455Z,5.00
2019-02-11T05:25:09.998Z,5.00
2019-02-11T05:27:38.506Z,4.98
2019-02-11T05:30:11.349Z,4.98
2019-02-11T05:32:39.802Z,4.97
2019-02-11T05:35:08.642Z,4.96
2019-02-11T05:37:37.099Z,4.96
2019-02-11T05:40:11.055Z,4.97
2019-02-11T05:42:39.514Z,4.98
2019-02-11T05:45:08.877Z,4.98
2019-02-11T05:47:37.327Z,4.98
2019-02-11T05:50:08.761Z,4.98
2019-02-11T05:52:37.202Z,4.97
2019-02-11T05:55:06.990Z,4.97
2019-02-11T05:57:35.492Z,5.01
2019-02-11T06:00:04.901Z,5.03
2019-02-11T06:02:33.353Z,5.03
2019-02-11T06:05:01.864Z,5.05
2019-02-11T06:07:30.302Z,5.07
2019-02-11T06:09:58.752Z,5.07
2019-02-11T06:12:27.242Z,5.10
2019-02-11T06:15:04.002Z,5.11
2019-02-11T06:17:25.873Z,5.12
2019-02-11T06:19:54.363Z,5.13
2019-02-11T06:22:22.819Z,5.14
2019-02-11T06:24:51.273Z,5.16
2019-02-11T06:27:20.020Z,5.19
2019-02-11T06:29:48.474Z,5.18
2019-02-11T06:32:16.911Z,5.20
2019-02-11T06:34:45.430Z,5.22
2019-02-11T06:37:13.873Z,5.23
2019-02-11T06:39:42.322Z,5.24
2019-02-11T06:42:10.789Z,5.27
2019-02-11T06:44:39.240Z,5.29
2019-02-11T06:47:07.846Z,5.31
2019-02-11T06:49:36.338Z,5.34
2019-02-11T06:52:04.784Z,5.37
2019-02-11T06:54:33.303Z,5.39
2019-02-11T06:57:01.806Z,5.41
2019-02-11T06:59:30.249Z,5.44
2019-02-11T07:01:58.684Z,5.46
2019-02-11T07:04:27.328Z,5.49
2019-02-11T07:06:55.774Z,5.50
2019-02-11T07:09:24.236Z,5.53
2019-02-11T07:11:52.734Z,5.55
2019-02-11T07:14:21.188Z,5.57
2019-02-11T07:16:49.636Z,5.59
2019-02-11T07:19:18.121Z,5.59
2019-02-11T07:21:46.712Z,5.62
2019-02-11T07:24:15.182Z,5.66
2019-02-11T07:26:43.643Z,5.68
2019-02-11T07:29:12.230Z,5.70
2019-02-11T07:31:40.688Z,5.70
2019-02-11T07:34:09.213Z,5.73
2019-02-11T07:36:37.647Z,5.74
2019-02-11T07:39:08.512Z,5.76
2019-02-11T07:41:38.627Z,5.78
2019-02-11T07:44:08.725Z,5.80
2019-02-11T07:46:38.845Z,5.82
2019-02-11T07:49:07.468Z,5.85
2019-02-11T07:51:42.093Z,5.87
2019-02-11T07:54:06.112Z,5.87
2019-02-11T07:56:34.622Z,5.90
2019-02-11T07:59:03.082Z,5.91
2019-02-11T08:01:31.544Z,5.94
2019-02-11T08:04:00.027Z,5.95
2019-02-11T08:06:28.476Z,5.94
2019-02-11T08:08:56.934Z,5.95
2019-02-11T08:11:25.456Z,5.93
2019-02-11T08:13:53.909Z,5.95
2019-02-11T08:16:22.353Z,5.94
2019-02-11T08:18:50.857Z,5.96
2019-02-11T08:21:19.329Z,5.97
2019-02-11T08:23:47.790Z,5.98
2019-02-11T08:26:16.286Z,5.98
2019-02-11T08:28:44.869Z,5.99
2019-02-11T08:31:13.664Z,6.01
2019-02-11T08:33:42.136Z,6.02
2019-02-11T08:36:10.659Z,6.05
2019-02-11T08:38:39.094Z,6.05
2019-02-11T08:41:07.750Z,6.09
2019-02-11T08:43:36.197Z,6.08
2019-02-11T08:46:04.658Z,6.11
2019-02-11T08:48:33.147Z,6.12
2019-02-11T08:51:01.604Z,6.13
2019-02-11T08:53:30.088Z,6.14
2019-02-11T08:55:58.643Z,6.15
2019-02-11T08:58:27.075Z,6.17
2019-02-11T09:00:55.600Z,6.16
2019-02-11T09:03:24.073Z,6.17
2019-02-11T09:05:52.539Z,6.18
2019-02-11T09:08:20.985Z,6.19
2019-02-11T09:10:49.483Z,6.20
2019-02-11T09:13:17.940Z,6.24
2019-02-11T09:15:46.380Z,6.25
2019-02-11T09:18:14.869Z,6.27
2019-02-11T09:20:45.023Z,6.29
2019-02-11T09:23:13.477Z,6.29
2019-02-11T09:25:41.914Z,6.29
2019-02-11T09:28:10.375Z,6.26
2019-02-11T09:30:39.923Z,6.22
2019-02-11T09:33:09.904Z,6.19
2019-02-11T09:35:38.370Z,6.18
2019-02-11T09:38:06.938Z,6.18
2019-02-11T09:40:35.383Z,6.21
2019-02-11T09:43:03.831Z,6.25
2019-02-11T09:45:32.333Z,6.30
2019-02-11T09:48:00.850Z,6.32
2019-02-11T09:50:38.419Z,6.34
2019-02-11T09:53:06.879Z,6.34
2019-02-11T09:55:35.334Z,6.35
2019-02-11T09:58:03.811Z,6.34
2019-02-11T10:00:32.339Z,6.31
2019-02-11T10:03:00.791Z,6.25
2019-02-11T10:05:29.279Z,6.22
2019-02-11T10:07:57.746Z,6.19
2019-02-11T10:10:26.210Z,6.13
2019-02-11T10:12:54.756Z,6.10
2019-02-11T10:15:23.279Z,6.03
2019-02-11T10:17:51.743Z,5.94
2019-02-11T10:20:20.240Z,5.86
2019-02-11T10:22:48.677Z,5.75
2019-02-11T10:25:22.635Z,5.65
2019-02-11T10:27:51.849Z,5.52
2019-02-11T10:30:20.294Z,5.40
2019-02-11T10:32:51.719Z,5.35
2019-02-11T10:35:21.107Z,5.32
2019-02-11T10:37:49.553Z,5.31
2019-02-11T10:40:18.030Z,5.33
2019-02-11T10:42:46.518Z,5.37
2019-02-11T10:45:15.341Z,5.43
2019-02-11T10:47:46.309Z,5.49
2019-02-11T10:50:17.433Z,5.56
2019-02-11T10:52:46.069Z,5.63
2019-02-11T10:55:19.048Z,5.71
2019-02-11T10:57:47.728Z,5.79
2019-02-11T11:00:26.750Z,5.84
2019-02-11T11:02:55.331Z,5.91
2019-02-11T11:05:23.848Z,5.98
2019-02-11T11:07:52.312Z,6.02
2019-02-11T11:10:32.258Z,6.05
2019-02-11T11:13:00.781Z,6.06
2019-02-11T11:15:29.340Z,6.09
2019-02-11T11:17:57.929Z,6.12
2019-02-11T11:20:26.553Z,6.12
2019-02-11T11:22:55.028Z,6.13
2019-02-11T11:25:23.533Z,6.17
2019-02-11T11:27:52.058Z,6.19
2019-02-11T11:30:20.511Z,6.22
2019-02-11T11:32:49.067Z,6.18
2019-02-11T11:35:18.465Z,6.18
2019-02-11T11:37:47.976Z,6.19
2019-02-11T11:40:21.046Z,6.20
2019-02-11T11:42:49.515Z,6.23
2019-02-11T11:45:19.421Z,6.23
2019-02-11T11:47:48.097Z,6.22
2019-02-11T11:50:17.175Z,6.20
2019-02-11T11:52:45.628Z,6.18
2019-02-11T11:55:21.568Z,6.15
2019-02-11T11:57:50.005Z,6.12
2019-02-11T12:00:21.439Z,6.11
2019-02-11T12:03:01.496Z,6.08
2019-02-11T12:05:20.196Z,6.07
2019-02-11T12:07:48.648Z,6.07
2019-02-11T12:10:17.280Z,6.06
2019-02-11T12:12:45.870Z,6.04
2019-02-11T12:15:17.031Z,6.04
2019-02-11T12:17:46.755Z,6.02
2019-02-11T12:20:16.183Z,6.00
2019-02-11T12:22:44.686Z,6.00
2019-02-11T12:25:17.716Z,6.01
2019-02-11T12:27:46.325Z,5.98
2019-02-11T12:30:20.637Z,5.94
2019-02-11T12:32:49.149Z,5.93
2019-02-11T12:35:17.595Z,5.91
2019-02-11T12:37:46.058Z,5.90
2019-02-11T12:40:14.781Z,5.85
2019-02-11T12:42:43.232Z,5.83
2019-02-11T12:45:16.952Z,5.77
2019-02-11T12:47:45.438Z,5.73
2019-02-11T12:50:16.219Z,5.70
2019-02-11T12:52:44.675Z,5.67
2019-02-11T12:55:14.805Z,5.63
2019-02-11T12:57:43.290Z,5.63
2019-02-11T13:00:16.833Z,5.63
2019-02-11T13:02:44.518Z,5.65
2019-02-11T13:05:13.507Z,5.62
2019-02-11T13:07:41.986Z,5.60
2019-02-11T13:10:14.456Z,5.59
2019-02-11T13:12:43.011Z,5.57
2019-02-11T13:15:34.084Z,5.56
2019-02-11T13:17:43.645Z,5.56
2019-02-11T13:20:13.915Z,5.55
2019-02-11T13:22:42.438Z,5.52
2019-02-11T13:25:14.007Z,5.52
2019-02-11T13:27:42.486Z,5.51
2019-02-11T13:30:22.623Z,5.49
2019-02-11T13:32:51.284Z,5.48
2019-02-11T13:35:19.810Z,5.48
2019-02-11T13:37:48.386Z,5.48
2019-02-11T13:40:16.956Z,5.50
2019-02-11T13:42:46.079Z,5.51
2019-02-11T13:45:17.415Z,5.54
2019-02-11T13:47:54.566Z,5.54
2019-02-11T13:50:19.232Z,5.56
2019-02-11T13:52:48.175Z,5.53
2019-02-11T13:55:16.637Z,5.51
2019-02-11T13:57:45.103Z,5.49
2019-02-11T14:00:18.074Z,5.47
2019-02-11T14:02:54.546Z,5.47
2019-02-11T14:05:23.683Z,5.46
2019-02-11T14:07:52.197Z,5.49
2019-02-11T14:10:20.657Z,5.51
2019-02-11T14:12:49.515Z,5.52
2019-02-11T14:15:20.545Z,5.54
2019-02-11T14:17:48.273Z,5.54
2019-02-11T14:20:21.838Z,5.54
2019-02-11T14:22:50.297Z,5.52
2019-02-11T14:25:39.251Z,5.52
2019-02-11T14:27:49.210Z,5.52
2019-02-11T14:30:22.126Z,5.51
2019-02-11T14:32:50.638Z,5.51
2019-02-11T14:35:20.195Z,5.50
2019-02-11T14:37:48.727Z,5.50
2019-02-11T14:40:17.176Z,5.52
2019-02-11T14:42:45.647Z,5.54
2019-02-11T14:45:17.105Z,5.54
2019-02-11T14:47:45.589Z,5.57
2019-02-11T14:50:14.125Z,5.61
2019-02-11T14:52:42.578Z,5.62
2019-02-11T14:55:11.690Z,5.67
2019-02-11T14:57:40.193Z,5.70
2019-02-11T15:00:16.031Z,5.73
2019-02-11T15:02:44.535Z,5.74
2019-02-11T15:05:14.585Z,5.72
2019-02-11T15:07:43.301Z,5.72
2019-02-11T15:10:13.091Z,5.72
2019-02-11T15:12:41.655Z,5.72
2019-02-11T15:15:11.355Z,5.76
2019-02-11T15:17:41.353Z,5.77
2019-02-11T15:20:11.893Z,5.82
2019-02-11T15:22:40.354Z,5.81
2019-02-11T15:25:11.048Z,5.83
2019-02-11T15:27:39.594Z,5.82
2019-02-11T15:30:16.270Z,5.80
2019-02-11T15:32:44.860Z,5.77
2019-02-11T15:35:13.411Z,5.71
2019-02-11T15:37:41.831Z,5.63
2019-02-11T15:40:15.607Z,5.58
2019-02-11T15:42:44.060Z,5.51
2019-02-11T15:45:14.448Z,5.44
2019-02-11T15:47:43.196Z,5.36
2019-02-11T15:50:14.183Z,5.29
2019-02-11T15:52:42.641Z,5.24
2019-02-11T15:55:13.287Z,5.17
2019-02-11T15:57:41.901Z,5.12
2019-02-11T16:00:13.298Z,5.08
2019-02-11T16:02:41.777Z,5.07
2019-02-11T16:05:15.962Z,5.04
2019-02-11T16:07:40.605Z,4.97
2019-02-11T16:10:12.253Z,4.93
2019-02-11T16:12:40.702Z,4.88
2019-02-11T16:15:11.196Z,4.82
2019-02-11T16:17:39.678Z,4.80
2019-02-11T16:20:11.243Z,4.66
2019-02-11T16:22:39.731Z,4.66
2019-02-11T16:25:14.386Z,4.69
2019-02-11T16:27:42.942Z,4.60
2019-02-11T16:30:14.281Z,4.59
2019-02-11T16:32:42.772Z,4.56
2019-02-11T16:35:12.876Z,4.56
2019-02-11T16:37:41.334Z,4.51
2019-02-11T16:40:12.476Z,4.51
2019-02-11T16:42:40.916Z,4.48
2019-02-11T16:45:10.696Z,4.43
2019-02-11T16:47:39.213Z,4.41
2019-02-11T16:50:12.514Z,4.38
2019-02-11T16:52:41.017Z,4.37
2019-02-11T16:55:11.503Z,4.37
2019-02-11T16:57:39.952Z,4.35
2019-02-11T17:00:14.157Z,4.27
2019-02-11T17:02:42.630Z,4.27
2019-02-11T17:05:11.820Z,4.30
2019-02-11T17:07:41.971Z,4.29
2019-02-11T17:10:12.177Z,4.26
2019-02-11T17:12:40.661Z,4.24
2019-02-11T17:15:14.779Z,4.19
2019-02-11T17:17:43.244Z,4.18
2019-02-11T17:20:13.939Z,4.18
2019-02-11T17:22:42.513Z,4.14
2019-02-11T17:25:11.811Z,4.08
2019-02-11T17:27:40.290Z,4.08
2019-02-11T17:30:14.990Z,4.09
2019-02-11T17:32:43.439Z,4.04
2019-02-11T17:35:11.965Z,4.04
2019-02-11T17:37:40.500Z,4.04
2019-02-11T17:40:11.988Z,4.08
2019-02-11T17:42:40.445Z,4.06
2019-02-11T17:45:15.043Z,4.06
2019-02-11T17:47:43.558Z,4.05
2019-02-11T17:50:12.243Z,4.03
2019-02-11T17:52:40.854Z,3.94
2019-02-11T17:55:11.750Z,3.98
2019-02-11T17:57:40.212Z,3.98
2019-02-11T18:00:22.476Z,3.97
2019-02-11T18:02:50.926Z,3.96
2019-02-11T18:05:19.375Z,3.95
2019-02-11T18:07:47.874Z,3.91
2019-02-11T18:10:16.356Z,3.91
2019-02-11T18:12:44.811Z,3.89
2019-02-11T18:15:13.452Z,3.89
2019-02-11T18:17:41.906Z,3.94
2019-02-11T18:20:10.542Z,3.94
2019-02-11T18:22:39.021Z,3.90
2019-02-11T18:25:08.911Z,3.88
2019-02-11T18:27:37.370Z,3.83
2019-02-11T18:30:09.769Z,3.83
2019-02-11T18:32:38.227Z,3.77
2019-02-11T18:35:09.685Z,3.77
2019-02-11T18:37:38.219Z,3.74
2019-02-11T18:40:11.937Z,3.70
2019-02-11T18:42:40.228Z,3.65
2019-02-11T18:45:11.385Z,3.61
2019-02-11T18:47:39.841Z,3.58
2019-02-11T18:50:10.938Z,3.52
2019-02-11T18:52:39.514Z,3.52
2019-02-11T18:55:11.204Z,3.48
2019-02-11T18:57:39.693Z,3.45
2019-02-11T19:00:12.203Z,3.39
2019-02-11T19:02:40.664Z,3.39
2019-02-11T19:05:09.195Z,3.35
2019-02-11T19:07:37.817Z,3.30
2019-02-11T19:10:09.240Z,3.26
2019-02-11T19:12:37.732Z,3.21
2019-02-11T19:15:09.287Z,3.16
2019-02-11T19:17:37.747Z,3.12
2019-02-11T19:20:09.258Z,3.07
2019-02-11T19:22:37.784Z,2.95
2019-02-11T19:25:08.666Z,2.95
2019-02-11T19:27:37.376Z,2.88
2019-02-11T19:30:09.030Z,2.83
2019-02-11T19:32:37.484Z,2.80
2019-02-11T19:35:07.081Z,2.78
2019-02-11T19:37:35.586Z,2.76
2019-02-11T19:40:06.440Z,2.74
2019-02-11T19:42:34.900Z,2.72
2019-02-11T19:45:04.338Z,2.70
2019-02-11T19:47:32.881Z,2.69
2019-02-11T19:50:01.346Z,2.69
2019-02-11T19:52:29.843Z,2.70
2019-02-11T19:54:58.372Z,2.73
2019-02-11T19:57:27.189Z,2.75
2019-02-11T19:59:55.695Z,2.76
2019-02-11T20:02:24.150Z,2.78
2019-02-11T20:04:52.603Z,2.81
2019-02-11T20:07:21.110Z,2.85
2019-02-11T20:09:49.586Z,2.88
2019-02-11T20:12:18.027Z,2.91
2019-02-11T20:14:46.538Z,2.94
2019-02-11T20:17:14.997Z,2.95
2019-02-11T20:19:43.449Z,2.98
2019-02-11T20:22:11.960Z,3.00
2019-02-11T20:24:40.426Z,3.01
2019-02-11T20:27:08.898Z,3.03
2019-02-11T20:29:37.472Z,3.06
2019-02-11T20:32:05.932Z,3.07
2019-02-11T20:34:34.403Z,3.08
2019-02-11T20:37:02.895Z,3.07
2019-02-11T20:39:31.367Z,3.09
2019-02-11T20:41:59.813Z,3.10
2019-02-11T20:44:28.311Z,3.11
2019-02-11T20:46:56.778Z,3.11
2019-02-11T20:49:25.234Z,3.13
2019-02-11T20:51:53.715Z,3.15
2019-02-11T20:54:22.174Z,3.16
2019-02-11T20:56:50.661Z,3.15
2019-02-11T20:59:20.593Z,3.17
2019-02-11T21:01:49.045Z,3.17
2019-02-11T21:04:17.498Z,3.17
2019-02-11T21:06:45.996Z,3.17
2019-02-11T21:09:14.441Z,3.15
2019-02-11T21:11:42.916Z,3.13
2019-02-11T21:14:11.412Z,3.11
2019-02-11T21:16:39.874Z,3.08
2019-02-11T21:19:08.325Z,3.04
2019-02-11T21:21:36.815Z,2.99
2019-02-11T21:24:05.337Z,2.95
2019-02-11T21:26:33.784Z,2.92
2019-02-11T21:29:02.287Z,2.89
2019-02-11T21:31:30.747Z,2.86
2019-02-11T21:33:59.208Z,2.84
2019-02-11T21:36:27.687Z,2.82
2019-02-11T21:38:56.149Z,2.80
2019-02-11T21:41:24.617Z,2.78
2019-02-11T21:43:53.131Z,2.76
2019-02-11T21:46:21.576Z,2.73
2019-02-11T21:48:50.065Z,2.69
2019-02-11T21:51:18.600Z,2.67
2019-02-11T21:53:47.075Z,2.65
2019-02-11T21:56:15.514Z,2.64
2019-02-11T21:58:43.992Z,2.61
2019-02-11T22:01:13.479Z,2.59
2019-02-11T22:03:41.932Z,2.57
2019-02-11T22:06:10.421Z,2.54
2019-02-11T22:08:38.887Z,2.51
2019-02-11T22:11:07.360Z,2.48
2019-02-11T22:13:35.845Z,2.46
2019-02-11T22:16:04.309Z,2.41
2019-02-11T22:18:32.768Z,2.38
2019-02-11T22:21:01.263Z,2.36
2019-02-11T22:23:29.722Z,2.34
2019-02-11T22:25:58.200Z,2.30
2019-02-11T22:28:26.710Z,2.29
2019-02-11T22:30:55.162Z,2.26
2019-02-11T22:33:23.630Z,2.26
2019-02-11T22:35:52.119Z,2.26
2019-02-11T22:38:20.576Z,2.26
2019-02-11T22:40:49.041Z,2.26
2019-02-11T22:43:17.551Z,2.28
2019-02-11T22:45:45.997Z,2.27
2019-02-11T22:48:14.461Z,2.28
2019-02-11T22:50:43.438Z,2.29
2019-02-11T22:53:12.031Z,2.29
2019-02-11T22:55:40.476Z,2.29
2019-02-11T22:58:09.004Z,2.32
2019-02-11T23:00:46.829Z,2.14
2019-02-11T23:03:17.249Z,2.39
2019-02-11T23:05:45.708Z,2.46
2019-02-11T23:08:14.238Z,2.53
2019-02-11T23:10:42.743Z,2.58
2019-02-11T23:13:11.234Z,2.66
2019-02-11T23:15:39.663Z,2.72
2019-02-11T23:18:08.311Z,2.78
2019-02-11T23:20:36.842Z,2.81
2019-02-11T23:23:05.375Z,2.85
2019-02-11T23:25:33.862Z,2.86
2019-02-11T23:28:02.313Z,2.86
2019-02-11T23:30:30.771Z,2.85
2019-02-11T23:32:59.279Z,2.84
2019-02-11T23:35:27.729Z,2.84
2019-02-11T23:37:56.181Z,2.83
2019-02-11T23:40:24.664Z,2.62
2019-02-11T23:42:53.194Z,2.81
2019-02-11T23:45:21.654Z,2.80
2019-02-11T23:47:50.149Z,2.80
2019-02-11T23:50:18.591Z,2.78
2019-02-11T23:52:47.038Z,2.78
2019-02-11T23:55:15.518Z,2.77
2019-02-11T23:57:43.985Z,2.76
